sensor_id;sensor_type;location;lat;lon;timestamp;P1;P4;P2;P0;N10;N4;N25;N1;N05;TS
82350;SPS30;71951;39.366;22.950;2024-01-06T08:46:29;86;;83;;;;;;;
82350;SPS30;71951;39.366;22.950;2024-01-06T08:49:55;82;;79;;;;;;;
82350;SPS30;71951;39.366;22.950;2024-01-06T08:53:22;82;;79;;;;;;;
82350;SPS30;71951;39.366;22.950;2024-01-06T08:56:49;77;;75;;;;;;;
82350;SPS30;71951;39.366;22.950;2024-01-06T09:00:16;73;;70;;;;;;;
82350;SPS30;71951;39.366;22.950;2024-01-06T09:03:43;69;;67;;;;;;;
82350;SPS30;71951;39.366;22.950;2024-01-06T09:07:09;54;;53;;;;;;;
82350;SPS30;71951;39.366;22.950;2024-01-06T09:10:36;56;;55;;;;;;;
82350;SPS30;71951;39.366;22.950;2024-01-06T09:14:02;54;;52;;;;;;;
82350;SPS30;71951;39.366;22.950;2024-01-06T09:17:29;45;;44;;;;;;;
82350;SPS30;71951;39.366;22.950;2024-01-06T09:20:56;40;;40;;;;;;;
82350;SPS30;71951;39.366;22.950;2024-01-06T09:24:22;37;;36;;;;;;;
82350;SPS30;71951;39.366;22.950;2024-01-06T09:27:49;37;;37;;;;;;;
82350;SPS30;71951;39.366;22.950;2024-01-06T09:31:15;37;;36;;;;;;;
82350;SPS30;71951;39.366;22.950;2024-01-06T09:34:42;35;;35;;;;;;;
82350;SPS30;71951;39.366;22.950;2024-01-06T09:38:08;40;;39;;;;;;;
82350;SPS30;71951;39.366;22.950;2024-01-06T09:41:35;42;;42;;;;;;;
82350;SPS30;71951;39.366;22.950;2024-01-06T09:45:01;45;;44;;;;;;;
82350;SPS30;71951;39.366;22.950;2024-01-06T09:48:29;43;;43;;;;;;;
82350;SPS30;71951;39.366;22.950;2024-01-06T09:51:56;48;;48;;;;;;;
82350;SPS30;71951;39.366;22.950;2024-01-06T09:55:25;47;;46;;;;;;;
82350;SPS30;71951;39.366;22.950;2024-01-06T09:58:53;50;;49;;;;;;;
82350;SPS30;71951;39.366;22.950;2024-01-06T10:02:20;53;;53;;;;;;;
82350;SPS30;71951;39.366;22.950;2024-01-06T10:05:47;53;;52;;;;;;;
82350;SPS30;71951;39.366;22.950;2024-01-06T10:09:13;52;;49;;;;;;;
82350;SPS30;71951;39.366;22.950;2024-01-06T10:12:40;47;;46;;;;;;;
82350;SPS30;71951;39.366;22.950;2024-01-06T10:16:08;36;;35;;;;;;;
82350;SPS30;71951;39.366;22.950;2024-01-06T10:19:35;29;;29;;;;;;;
82350;SPS30;71951;39.366;22.950;2024-01-06T10:23:04;28;;27;;;;;;;
82350;SPS30;71951;39.366;22.950;2024-01-06T10:26:31;31;;30;;;;;;;
82350;SPS30;71951;39.366;22.950;2024-01-06T10:29:57;29;;28;;;;;;;
82350;SPS30;71951;39.366;22.950;2024-01-06T10:33:25;24;;24;;;;;;;
82350;SPS30;71951;39.366;22.950;2024-01-06T10:36:52;20;;20;;;;;;;
82350;SPS30;71951;39.366;22.950;2024-01-06T10:40:19;12;;11;;;;;;;
82350;SPS30;71951;39.366;22.950;2024-01-06T10:43:46;14;;13;;;;;;;
82350;SPS30;71951;39.366;22.950;2024-01-06T10:47:13;10;;10;;;;;;;
82350;SPS30;71951;39.366;22.950;2024-01-06T10:50:42;8;;8;;;;;;;
82350;SPS30;71951;39.366;22.950;2024-01-06T10:54:10;9;;9;;;;;;;
82350;SPS30;71951;39.366;22.950;2024-01-06T10:57:38;10;;9;;;;;;;
82350;SPS30;71951;39.366;22.950;2024-01-06T11:01:09;8;;8;;;;;;;
82350;SPS30;71951;39.366;22.950;2024-01-06T11:04:35;8;;8;;;;;;;
82350;SPS30;71951;39.366;22.950;2024-01-06T11:08:03;15;;14;;;;;;;
82350;SPS30;71951;39.366;22.950;2024-01-06T11:11:30;13;;13;;;;;;;
82350;SPS30;71951;39.366;22.950;2024-01-06T11:14:57;12;;12;;;;;;;
82350;SPS30;71951;39.366;22.950;2024-01-06T11:18:32;8;;8;;;;;;;
82350;SPS30;71951;39.366;22.950;2024-01-06T11:25:36;15;;14;;;;;;;
82350;SPS30;71951;39.366;22.950;2024-01-06T11:29:07;13;;13;;;;;;;
82350;SPS30;71951;39.366;22.950;2024-01-06T11:32:34;13;;12;;;;;;;
82350;SPS30;71951;39.366;22.950;2024-01-06T11:36:01;13;;12;;;;;;;
82350;SPS30;71951;39.366;22.950;2024-01-06T11:39:34;10;;10;;;;;;;
82350;SPS30;71951;39.366;22.950;2024-01-06T11:43:02;8;;8;;;;;;;
82350;SPS30;71951;39.366;22.950;2024-01-06T11:46:30;8;;8;;;;;;;
82350;SPS30;71951;39.366;22.950;2024-01-06T11:49:57;7;;7;;;;;;;
82350;SPS30;71951;39.366;22.950;2024-01-06T11:53:26;8;;8;;;;;;;
82350;SPS30;71951;39.366;22.950;2024-01-06T11:56:53;9;;9;;;;;;;
82350;SPS30;71951;39.366;22.950;2024-01-06T12:00:19;13;;13;;;;;;;
82350;SPS30;71951;39.366;22.950;2024-01-06T12:03:46;14;;14;;;;;;;
82350;SPS30;71951;39.366;22.950;2024-01-06T12:07:19;10;;9;;;;;;;
82350;SPS30;71951;39.366;22.950;2024-01-06T12:10:46;10;;10;;;;;;;
82350;SPS30;71951;39.366;22.950;2024-01-06T12:14:13;10;;10;;;;;;;
82350;SPS30;71951;39.366;22.950;2024-01-06T12:17:40;9;;8;;;;;;;
82350;SPS30;71951;39.366;22.950;2024-01-06T12:21:06;11;;11;;;;;;;
82350;SPS30;71951;39.366;22.950;2024-01-06T12:24:33;10;;9;;;;;;;
82350;SPS30;71951;39.366;22.950;2024-01-06T12:28:00;10;;9;;;;;;;
82350;SPS30;71951;39.366;22.950;2024-01-06T12:31:27;10;;10;;;;;;;
82350;SPS30;71951;39.366;22.950;2024-01-06T12:34:53;9;;9;;;;;;;
82350;SPS30;71951;39.366;22.950;2024-01-06T12:38:20;9;;8;;;;;;;
82350;SPS30;71951;39.366;22.950;2024-01-06T12:41:47;8;;8;;;;;;;
82350;SPS30;71951;39.366;22.950;2024-01-06T12:45:13;9;;9;;;;;;;
82350;SPS30;71951;39.366;22.950;2024-01-06T12:48:40;8;;8;;;;;;;
82350;SPS30;71951;39.366;22.950;2024-01-06T12:52:07;21;;16;;;;;;;
82350;SPS30;71951;39.366;22.950;2024-01-06T12:55:34;11;;10;;;;;;;
82350;SPS30;71951;39.366;22.950;2024-01-06T12:59:00;10;;9;;;;;;;
82350;SPS30;71951;39.366;22.950;2024-01-06T13:02:26;7;;7;;;;;;;
82350;SPS30;71951;39.366;22.950;2024-01-06T13:05:53;8;;8;;;;;;;
82350;SPS30;71951;39.366;22.950;2024-01-06T13:09:20;8;;8;;;;;;;
82350;SPS30;71951;39.366;22.950;2024-01-06T13:12:46;8;;8;;;;;;;
82350;SPS30;71951;39.366;22.950;2024-01-06T13:16:16;9;;9;;;;;;;
82350;SPS30;71951;39.366;22.950;2024-01-06T13:19:43;8;;8;;;;;;;
82350;SPS30;71951;39.366;22.950;2024-01-06T13:23:09;8;;8;;;;;;;
82350;SPS30;71951;39.366;22.950;2024-01-06T13:26:36;6;;6;;;;;;;
82350;SPS30;71951;39.366;22.950;2024-01-06T13:30:03;6;;6;;;;;;;
82350;SPS30;71951;39.366;22.950;2024-01-06T13:33:31;6;;6;;;;;;;
82350;SPS30;71951;39.366;22.950;2024-01-06T13:36:57;5;;5;;;;;;;
82350;SPS30;71951;39.366;22.950;2024-01-06T13:40:24;4;;4;;;;;;;
82350;SPS30;71951;39.366;22.950;2024-01-06T13:43:50;4;;4;;;;;;;
82350;SPS30;71951;39.366;22.950;2024-01-06T13:47:17;6;;6;;;;;;;
82350;SPS30;71951;39.366;22.950;2024-01-06T13:50:43;6;;6;;;;;;;
82350;SPS30;71951;39.366;22.950;2024-01-06T13:54:10;4;;4;;;;;;;
82350;SPS30;71951;39.366;22.950;2024-01-06T13:57:37;5;;4;;;;;;;
82350;SPS30;71951;39.366;22.950;2024-01-06T14:01:03;5;;5;;;;;;;
82350;SPS30;71951;39.366;22.950;2024-01-06T14:04:30;6;;6;;;;;;;
82350;SPS30;71951;39.366;22.950;2024-01-06T14:07:56;6;;6;;;;;;;
82350;SPS30;71951;39.366;22.950;2024-01-06T14:11:23;4;;4;;;;;;;
82350;SPS30;71951;39.366;22.950;2024-01-06T14:14:49;5;;5;;;;;;;
82350;SPS30;71951;39.366;22.950;2024-01-06T14:18:17;5;;5;;;;;;;
82350;SPS30;71951;39.366;22.950;2024-01-06T14:21:44;6;;5;;;;;;;
82350;SPS30;71951;39.366;22.950;2024-01-06T14:25:11;6;;5;;;;;;;
82350;SPS30;71951;39.366;22.950;2024-01-06T14:28:38;8;;7;;;;;;;
82350;SPS30;71951;39.366;22.950;2024-01-06T14:32:05;5;;5;;;;;;;
82350;SPS30;71951;39.366;22.950;2024-01-06T14:35:31;6;;6;;;;;;;
82350;SPS30;71951;39.366;22.950;2024-01-06T14:38:58;5;;5;;;;;;;
82350;SPS30;71951;39.366;22.950;2024-01-06T14:42:24;5;;5;;;;;;;
82350;SPS30;71951;39.366;22.950;2024-01-06T14:45:51;6;;6;;;;;;;
82350;SPS30;71951;39.366;22.950;2024-01-06T14:49:18;6;;5;;;;;;;
82350;SPS30;71951;39.366;22.950;2024-01-06T14:52:44;5;;5;;;;;;;
82350;SPS30;71951;39.366;22.950;2024-01-06T14:56:11;5;;5;;;;;;;
82350;SPS30;71951;39.366;22.950;2024-01-06T14:59:38;5;;5;;;;;;;
82350;SPS30;71951;39.366;22.950;2024-01-06T15:03:05;5;;5;;;;;;;
82350;SPS30;71951;39.366;22.950;2024-01-06T15:06:31;5;;5;;;;;;;
82350;SPS30;71951;39.366;22.950;2024-01-06T15:09:58;4;;4;;;;;;;
82350;SPS30;71951;39.366;22.950;2024-01-06T15:13:25;5;;5;;;;;;;
82350;SPS30;71951;39.366;22.950;2024-01-06T15:16:51;5;;5;;;;;;;
82350;SPS30;71951;39.366;22.950;2024-01-06T15:20:19;6;;6;;;;;;;
82350;SPS30;71951;39.366;22.950;2024-01-06T15:23:45;5;;5;;;;;;;
82350;SPS30;71951;39.366;22.950;2024-01-06T15:27:12;6;;6;;;;;;;
82350;SPS30;71951;39.366;22.950;2024-01-06T15:30:39;5;;5;;;;;;;
82350;SPS30;71951;39.366;22.950;2024-01-06T15:34:05;5;;5;;;;;;;
82350;SPS30;71951;39.366;22.950;2024-01-06T15:37:32;6;;5;;;;;;;
82350;SPS30;71951;39.366;22.950;2024-01-06T15:40:58;6;;6;;;;;;;
82350;SPS30;71951;39.366;22.950;2024-01-06T15:44:25;6;;6;;;;;;;
82350;SPS30;71951;39.366;22.950;2024-01-06T15:47:51;6;;6;;;;;;;
82350;SPS30;71951;39.366;22.950;2024-01-06T15:51:18;7;;7;;;;;;;
82350;SPS30;71951;39.366;22.950;2024-01-06T15:54:46;6;;6;;;;;;;
82350;SPS30;71951;39.366;22.950;2024-01-06T15:58:16;5;;5;;;;;;;
82350;SPS30;71951;39.366;22.950;2024-01-06T16:01:42;8;;7;;;;;;;
82350;SPS30;71951;39.366;22.950;2024-01-06T16:05:09;5;;5;;;;;;;
82350;SPS30;71951;39.366;22.950;2024-01-06T16:08:35;6;;6;;;;;;;
82350;SPS30;71951;39.366;22.950;2024-01-06T16:12:02;6;;6;;;;;;;
82350;SPS30;71951;39.366;22.950;2024-01-06T16:15:29;6;;6;;;;;;;
82350;SPS30;71951;39.366;22.950;2024-01-06T16:18:56;8;;8;;;;;;;
82350;SPS30;71951;39.366;22.950;2024-01-06T16:22:22;7;;6;;;;;;;
82350;SPS30;71951;39.366;22.950;2024-01-06T16:25:49;5;;5;;;;;;;
82350;SPS30;71951;39.366;22.950;2024-01-06T16:29:15;6;;6;;;;;;;
82350;SPS30;71951;39.366;22.950;2024-01-06T16:32:42;6;;6;;;;;;;
82350;SPS30;71951;39.366;22.950;2024-01-06T16:36:08;6;;6;;;;;;;
82350;SPS30;71951;39.366;22.950;2024-01-06T16:39:35;8;;8;;;;;;;
82350;SPS30;71951;39.366;22.950;2024-01-06T16:43:02;7;;7;;;;;;;
82350;SPS30;71951;39.366;22.950;2024-01-06T16:46:28;6;;6;;;;;;;
82350;SPS30;71951;39.366;22.950;2024-01-06T16:49:55;8;;8;;;;;;;
82350;SPS30;71951;39.366;22.950;2024-01-06T16:53:22;8;;8;;;;;;;
